createdAt,value
2022-12-31T00:01:32.339Z,99597.31
2022-12-31T00:06:35.618Z,99624.59
2022-12-31T00:11:37.925Z,99641.84
2022-12-31T00:16:41.883Z,99652.56
2022-12-31T00:21:43.634Z,99651.34
2022-12-31T00:26:45.183Z,99664.25
2022-12-31T00:31:46.799Z,99655.72
2022-12-31T00:36:48.392Z,99663.25
2022-12-31T00:41:50.057Z,99670.78
2022-12-31T00:46:51.629Z,99663.91
2022-12-31T00:51:53.215Z,99681.63
2022-12-31T00:56:54.784Z,99689.69
2022-12-31T01:01:56.510Z,99682.31
2022-12-31T01:06:58.147Z,99689.03
2022-12-31T01:11:59.792Z,99696.56
2022-12-31T01:17:01.345Z,99713.28
2022-12-31T01:22:02.934Z,99721.84
2022-12-31T01:27:04.543Z,99715.97
2022-12-31T01:32:06.112Z,99726.84
2022-12-31T01:37:07.678Z,99733.06
2022-12-31T01:42:11.679Z,99742.94
2022-12-31T01:47:16.086Z,99755.84
2022-12-31T01:52:35.481Z,99756.50
2022-12-31T01:57:37.673Z,99758.69
2022-12-31T02:02:39.376Z,99759.53
2022-12-31T02:07:41.241Z,99760.69
2022-12-31T02:12:42.934Z,99760.00
2022-12-31T02:18:00.490Z,99755.66
2022-12-31T02:23:29.783Z,99766.38
2022-12-31T02:28:49.376Z,99772.25
2022-12-31T02:33:53.191Z,99759.34
2022-12-31T02:38:54.979Z,99754.81
2022-12-31T02:43:56.515Z,99732.22
2022-12-31T02:49:12.253Z,99738.75
2022-12-31T02:54:22.778Z,99737.91
2022-12-31T03:00:19.757Z,99715.97
2022-12-31T03:05:24.362Z,99705.25
2022-12-31T03:10:25.968Z,99723.16
2022-12-31T03:15:32.496Z,99731.38
2022-12-31T03:20:59.449Z,99731.88
2022-12-31T03:26:01.927Z,99729.22
2022-12-31T03:31:04.235Z,99738.75
2022-12-31T03:36:08.754Z,99726.53
2022-12-31T03:41:11.076Z,99723.84
2022-12-31T03:46:12.709Z,99734.22
2022-12-31T03:51:14.450Z,99702.41
2022-12-31T03:56:16.168Z,99721.00
2022-12-31T04:01:17.850Z,99713.13
2022-12-31T04:06:19.526Z,99725.84
2022-12-31T04:11:21.358Z,99715.78
2022-12-31T04:16:22.993Z,99712.44
2022-12-31T04:21:27.745Z,99712.75
2022-12-31T04:26:31.712Z,99722.50
2022-12-31T04:31:33.398Z,99707.72
2022-12-31T04:36:35.372Z,99696.66
2022-12-31T04:41:37.028Z,99692.13
2022-12-31T04:46:38.619Z,99691.63
2022-12-31T04:51:40.339Z,99702.66
2022-12-31T04:56:41.924Z,99696.47
2022-12-31T05:01:43.597Z,99710.03
2022-12-31T05:06:45.266Z,99717.06
2022-12-31T05:11:46.833Z,99706.00
2022-12-31T05:16:48.475Z,99693.28
2022-12-31T05:22:10.075Z,99703.66
2022-12-31T05:27:11.717Z,99697.13
2022-12-31T05:32:13.319Z,99697.44
2022-12-31T05:37:14.902Z,99691.72
2022-12-31T05:42:16.486Z,99693.56
2022-12-31T05:47:18.239Z,99703.72
2022-12-31T05:52:21.470Z,99707.81
2022-12-31T05:57:23.092Z,99716.22
2022-12-31T06:02:24.810Z,99709.97
2022-12-31T06:07:26.449Z,99737.59
2022-12-31T06:12:28.134Z,99744.03
2022-12-31T06:17:32.372Z,99735.06
2022-12-31T06:22:33.967Z,99743.75
2022-12-31T06:27:35.559Z,99727.88
2022-12-31T06:32:37.129Z,99722.75
2022-12-31T06:37:38.723Z,99731.53
2022-12-31T06:42:42.167Z,99724.34
2022-12-31T06:47:43.713Z,99717.25
2022-12-31T06:52:45.278Z,99716.66
2022-12-31T06:57:47.147Z,99733.97
2022-12-31T07:02:57.894Z,99743.75
2022-12-31T07:08:06.209Z,99746.84
2022-12-31T07:13:17.053Z,99759.16
2022-12-31T07:18:27.730Z,99755.47
2022-12-31T07:23:29.520Z,99765.50
2022-12-31T07:28:47.559Z,99757.13
2022-12-31T07:33:56.528Z,99739.31
2022-12-31T07:39:21.085Z,99756.47
2022-12-31T07:45:01.100Z,99747.56
2022-12-31T07:50:03.772Z,99754.72
2022-12-31T07:55:05.830Z,99758.59
2022-12-31T08:00:16.750Z,99764.25
2022-12-31T08:05:29.876Z,99769.56
2022-12-31T08:11:10.549Z,99778.19
2022-12-31T08:16:13.227Z,99794.53
2022-12-31T08:21:34.963Z,99802.19
2022-12-31T08:26:46.905Z,99788.94
2022-12-31T08:32:03.846Z,99780.13
2022-12-31T08:37:36.719Z,99780.00
2022-12-31T08:42:44.068Z,99769.72
2022-12-31T08:47:59.831Z,99786.28
2022-12-31T08:53:02.400Z,99784.28
2022-12-31T08:58:09.929Z,99778.53
2022-12-31T09:03:19.078Z,99777.41
2022-12-31T09:08:24.506Z,99791.81
2022-12-31T09:13:26.001Z,99798.53
2022-12-31T09:18:33.046Z,99801.84
2022-12-31T09:23:35.175Z,99817.41
2022-12-31T09:29:06.970Z,99820.19
2022-12-31T09:34:30.046Z,99824.22
2022-12-31T09:39:41.121Z,99823.41
2022-12-31T09:45:08.309Z,99835.84
2022-12-31T09:50:19.162Z,99844.84
2022-12-31T09:55:37.275Z,99821.81
2022-12-31T10:00:53.993Z,99825.53
2022-12-31T10:06:32.997Z,99828.41
2022-12-31T10:11:55.638Z,99834.22
2022-12-31T10:17:13.946Z,99813.91
2022-12-31T10:22:33.853Z,99824.09
2022-12-31T10:27:42.084Z,99816.13
2022-12-31T10:33:00.608Z,99826.31
2022-12-31T10:38:27.060Z,99840.47
2022-12-31T10:43:55.616Z,99837.34
2022-12-31T10:49:15.478Z,99842.81
2022-12-31T10:54:34.691Z,99846.38
2022-12-31T10:59:48.271Z,99858.59
2022-12-31T11:05:01.958Z,99854.06
2022-12-31T11:10:20.277Z,99856.97
2022-12-31T11:15:21.845Z,99829.59
2022-12-31T11:20:46.513Z,99841.03
2022-12-31T11:26:00.382Z,99823.34
2022-12-31T11:31:23.414Z,99827.88
2022-12-31T11:36:26.182Z,99808.34
2022-12-31T11:41:49.897Z,99832.53
2022-12-31T11:47:25.528Z,99830.19
2022-12-31T11:52:38.432Z,99838.75
2022-12-31T11:57:42.099Z,99833.34
2022-12-31T12:02:46.997Z,99842.13
2022-12-31T12:07:49.681Z,99841.50
2022-12-31T12:12:53.003Z,99836.28
2022-12-31T12:17:59.652Z,99851.88
2022-12-31T12:23:03.013Z,99848.19
2022-12-31T12:28:19.335Z,99853.38
2022-12-31T12:33:21.628Z,99878.00
2022-12-31T12:38:23.676Z,99858.03
2022-12-31T12:43:31.095Z,99854.69
2022-12-31T12:48:44.552Z,99841.38
2022-12-31T12:54:04.161Z,99861.38
2022-12-31T12:59:24.171Z,99854.69
2022-12-31T13:04:36.053Z,99859.91
2022-12-31T13:10:05.551Z,99849.28
2022-12-31T13:15:19.059Z,99865.09
2022-12-31T13:20:25.957Z,99855.53
2022-12-31T13:25:45.896Z,99855.13
2022-12-31T13:30:50.901Z,99847.81
2022-12-31T13:35:55.982Z,99836.97
2022-12-31T13:40:57.497Z,99866.97
2022-12-31T13:46:25.873Z,99862.78
2022-12-31T13:51:46.717Z,99878.78
2022-12-31T13:56:49.655Z,99883.38
2022-12-31T14:02:13.223Z,99872.53
2022-12-31T14:07:18.757Z,99876.50
2022-12-31T14:12:26.323Z,99868.16
2022-12-31T14:17:49.208Z,99867.94
2022-12-31T14:23:00.294Z,99897.50
2022-12-31T14:28:03.267Z,99912.88
2022-12-31T14:33:13.778Z,99930.78
2022-12-31T14:38:52.414Z,99941.59
2022-12-31T14:44:12.017Z,99945.94
2022-12-31T14:49:16.415Z,99945.06
2022-12-31T14:54:37.476Z,99941.50
2022-12-31T14:59:40.859Z,99940.63
2022-12-31T15:04:45.208Z,99951.44
2022-12-31T15:09:57.225Z,99949.84
2022-12-31T15:15:37.074Z,99955.66
2022-12-31T15:21:25.137Z,99974.38
2022-12-31T15:26:31.550Z,99978.06
2022-12-31T15:31:35.099Z,99978.97
2022-12-31T15:36:39.386Z,99991.34
2022-12-31T15:42:10.311Z,99988.03
2022-12-31T15:47:30.796Z,99994.22
2022-12-31T15:52:50.812Z,99983.41
2022-12-31T15:57:54.509Z,99983.13
2022-12-31T16:02:56.377Z,99985.41
2022-12-31T16:07:59.203Z,100006.03
2022-12-31T16:13:00.886Z,99994.53
2022-12-31T16:18:03.488Z,100004.94
2022-12-31T16:23:25.672Z,100003.19
2022-12-31T16:28:32.379Z,100004.22
2022-12-31T16:33:34.331Z,100015.53
2022-12-31T16:38:37.305Z,100014.63
2022-12-31T16:43:40.908Z,100013.63
2022-12-31T16:48:56.190Z,100010.75
2022-12-31T16:53:58.390Z,100020.63
2022-12-31T16:59:33.476Z,100023.13
2022-12-31T17:04:39.993Z,100017.84
2022-12-31T17:09:46.706Z,100027.47
2022-12-31T17:14:50.142Z,100027.88
2022-12-31T17:19:56.329Z,100016.16
2022-12-31T17:25:20.782Z,100022.06
2022-12-31T17:30:28.190Z,100019.78
2022-12-31T17:35:35.013Z,100035.13
2022-12-31T17:40:51.007Z,100063.63
2022-12-31T17:45:54.707Z,100047.41
2022-12-31T17:51:01.043Z,100059.91
2022-12-31T17:56:05.029Z,100077.16
2022-12-31T18:01:08.333Z,100073.00
2022-12-31T18:06:16.315Z,100071.91
2022-12-31T18:11:21.341Z,100086.09
2022-12-31T18:16:23.103Z,100083.88
2022-12-31T18:21:34.795Z,100084.91
2022-12-31T18:26:36.362Z,100074.84
2022-12-31T18:31:39.384Z,100068.03
2022-12-31T18:36:41.420Z,100073.50
2022-12-31T18:41:51.330Z,100054.25
2022-12-31T18:46:52.910Z,100047.56
2022-12-31T18:51:57.047Z,100049.59
2022-12-31T18:56:58.797Z,100053.22
2022-12-31T19:02:00.515Z,100043.41
2022-12-31T19:07:02.192Z,100034.06
2022-12-31T19:12:04.063Z,100036.16
2022-12-31T19:22:06.167Z,100032.34
2022-12-31T19:27:09.787Z,100029.84
2022-12-31T19:32:11.416Z,100015.81
2022-12-31T19:37:16.225Z,100022.91
2022-12-31T19:42:17.859Z,100024.94
2022-12-31T19:47:19.481Z,100023.00
2022-12-31T19:52:21.062Z,100017.59
2022-12-31T19:57:22.629Z,100024.84
2022-12-31T20:02:24.425Z,100018.53
2022-12-31T20:07:27.353Z,100033.56
2022-12-31T20:12:29.545Z,100025.97
2022-12-31T20:17:31.395Z,100015.69
2022-12-31T20:22:33.055Z,100016.63
2022-12-31T20:27:34.766Z,100017.06
2022-12-31T20:32:36.392Z,100027.63
2022-12-31T20:37:37.979Z,100023.25
2022-12-31T20:42:40.652Z,100017.69
2022-12-31T20:47:42.254Z,100005.59
2022-12-31T20:52:44.197Z,100017.44
2022-12-31T20:57:45.791Z,100012.59
2022-12-31T21:02:55.509Z,100000.66
2022-12-31T21:07:58.367Z,99986.38
2022-12-31T21:12:59.933Z,99977.44
2022-12-31T21:18:01.549Z,99961.44
2022-12-31T21:23:03.168Z,99948.81
2022-12-31T21:28:04.912Z,99949.28
2022-12-31T21:33:07.203Z,99953.06
2022-12-31T21:38:09.026Z,99959.56
2022-12-31T21:43:11.468Z,99961.63
2022-12-31T21:48:20.622Z,99960.59
2022-12-31T21:53:27.896Z,99977.41
2022-12-31T21:58:33.659Z,100004.50
2022-12-31T22:03:35.577Z,100007.19
2022-12-31T22:08:37.307Z,100022.53
2022-12-31T22:13:39.283Z,100028.78
2022-12-31T22:18:42.960Z,100038.75
2022-12-31T22:23:44.876Z,100047.03
2022-12-31T22:28:47.015Z,100058.47
2022-12-31T22:33:48.961Z,100073.41
2022-12-31T22:38:54.258Z,100086.78
2022-12-31T22:44:03.148Z,100091.56
2022-12-31T22:49:05.975Z,100088.09
2022-12-31T22:54:07.569Z,100094.91
2022-12-31T22:59:09.526Z,100107.81
2022-12-31T23:04:12.077Z,100105.09
2022-12-31T23:09:34.028Z,100108.88
2022-12-31T23:14:54.757Z,100122.16
2022-12-31T23:20:14.695Z,100121.50
2022-12-31T23:25:16.516Z,100132.56
2022-12-31T23:30:18.149Z,100131.09
2022-12-31T23:35:19.757Z,100131.13
2022-12-31T23:40:22.113Z,100120.91
2022-12-31T23:45:28.182Z,100118.13
2022-12-31T23:50:32.767Z,100113.44
2022-12-31T23:55:34.407Z,100136.94
